sensor_id;sensor_type;location;lat;lon;timestamp;pressure;altitude;pressure_sealevel;temperature;humidity
16978;BME280;8605;52.548;4.918;2024-03-17T00:02:09;102378.53;;;5.49;88.72
16978;BME280;8605;52.548;4.918;2024-03-17T00:04:36;102376.53;;;5.52;89.32
16978;BME280;8605;52.548;4.918;2024-03-17T00:07:03;102371.03;;;5.55;89.05
16978;BME280;8605;52.548;4.918;2024-03-17T00:09:30;102374.56;;;5.56;88.62
16978;BME280;8605;52.548;4.918;2024-03-17T00:11:56;102369.22;;;5.56;88.51
16978;BME280;8605;52.548;4.918;2024-03-17T00:14:25;102362.94;;;5.57;88.65
16978;BME280;8605;52.548;4.918;2024-03-17T00:16:50;102361.97;;;5.58;88.95
16978;BME280;8605;52.548;4.918;2024-03-17T00:19:17;102359.41;;;5.56;87.91
16978;BME280;8605;52.548;4.918;2024-03-17T00:21:44;102366.44;;;5.57;87.96
16978;BME280;8605;52.548;4.918;2024-03-17T00:24:11;102361.88;;;5.59;88.37
16978;BME280;8605;52.548;4.918;2024-03-17T00:26:39;102364.53;;;5.59;88.01
16978;BME280;8605;52.548;4.918;2024-03-17T00:29:05;102361.78;;;5.61;88.29
16978;BME280;8605;52.548;4.918;2024-03-17T00:31:32;102357.25;;;5.63;87.57
16978;BME280;8605;52.548;4.918;2024-03-17T00:33:58;102358.84;;;5.66;87.99
16978;BME280;8605;52.548;4.918;2024-03-17T00:36:24;102362.22;;;5.69;87.29
16978;BME280;8605;52.548;4.918;2024-03-17T00:38:50;102359.56;;;5.69;87.49
16978;BME280;8605;52.548;4.918;2024-03-17T00:41:19;102348.00;;;5.69;87.51
16978;BME280;8605;52.548;4.918;2024-03-17T00:43:47;102351.53;;;5.69;88.04
16978;BME280;8605;52.548;4.918;2024-03-17T00:46:15;102339.22;;;5.67;87.62
16978;BME280;8605;52.548;4.918;2024-03-17T00:48:43;102337.31;;;5.69;87.50
16978;BME280;8605;52.548;4.918;2024-03-17T00:51:12;102334.56;;;5.70;87.20
16978;BME280;8605;52.548;4.918;2024-03-17T00:53:38;102335.53;;;5.69;87.38
16978;BME280;8605;52.548;4.918;2024-03-17T00:56:04;102339.72;;;5.73;87.62
16978;BME280;8605;52.548;4.918;2024-03-17T00:58:33;102333.50;;;5.73;87.83
16978;BME280;8605;52.548;4.918;2024-03-17T01:00:59;102325.50;;;5.73;87.07
16978;BME280;8605;52.548;4.918;2024-03-17T01:03:27;102326.28;;;5.75;86.77
16978;BME280;8605;52.548;4.918;2024-03-17T01:05:53;102326.19;;;5.76;86.57
16978;BME280;8605;52.548;4.918;2024-03-17T01:08:20;102329.03;;;5.73;86.33
16978;BME280;8605;52.548;4.918;2024-03-17T01:10:47;102326.09;;;5.78;85.68
16978;BME280;8605;52.548;4.918;2024-03-17T01:13:16;102323.41;;;5.78;85.48
16978;BME280;8605;52.548;4.918;2024-03-17T01:15:44;102324.28;;;5.78;85.69
16978;BME280;8605;52.548;4.918;2024-03-17T01:18:10;102309.03;;;5.80;85.46
16978;BME280;8605;52.548;4.918;2024-03-17T01:20:37;102308.88;;;5.83;85.15
16978;BME280;8605;52.548;4.918;2024-03-17T01:23:04;102312.56;;;5.81;84.94
16978;BME280;8605;52.548;4.918;2024-03-17T01:25:30;102308.94;;;5.82;85.38
16978;BME280;8605;52.548;4.918;2024-03-17T01:28:01;102319.63;;;5.82;85.03
16978;BME280;8605;52.548;4.918;2024-03-17T01:30:27;102304.47;;;5.82;85.50
16978;BME280;8605;52.548;4.918;2024-03-17T01:32:55;102302.53;;;5.84;85.56
16978;BME280;8605;52.548;4.918;2024-03-17T01:35:21;102296.25;;;5.85;85.43
16978;BME280;8605;52.548;4.918;2024-03-17T01:37:48;102293.59;;;5.85;84.99
16978;BME280;8605;52.548;4.918;2024-03-17T01:40:14;102292.59;;;5.88;85.31
16978;BME280;8605;52.548;4.918;2024-03-17T01:42:41;102282.75;;;5.88;84.39
16978;BME280;8605;52.548;4.918;2024-03-17T01:45:27;102292.50;;;5.89;84.57
16978;BME280;8605;52.548;4.918;2024-03-17T01:47:57;102279.97;;;5.90;85.19
16978;BME280;8605;52.548;4.918;2024-03-17T01:50:25;102294.19;;;5.90;84.93
16978;BME280;8605;52.548;4.918;2024-03-17T01:52:53;102282.47;;;5.93;85.40
16978;BME280;8605;52.548;4.918;2024-03-17T01:55:22;102278.09;;;5.92;85.24
16978;BME280;8605;52.548;4.918;2024-03-17T01:57:50;102279.81;;;5.93;85.28
16978;BME280;8605;52.548;4.918;2024-03-17T02:00:17;102280.66;;;5.93;85.80
16978;BME280;8605;52.548;4.918;2024-03-17T02:02:42;102278.00;;;5.93;85.39
16978;BME280;8605;52.548;4.918;2024-03-17T02:05:11;102279.72;;;5.94;85.92
16978;BME280;8605;52.548;4.918;2024-03-17T02:07:37;102269.91;;;5.95;86.10
16978;BME280;8605;52.548;4.918;2024-03-17T02:10:04;102261.97;;;5.93;85.85
16978;BME280;8605;52.548;4.918;2024-03-17T02:12:31;102260.94;;;5.96;85.95
16978;BME280;8605;52.548;4.918;2024-03-17T02:14:58;102258.34;;;5.94;86.39
16978;BME280;8605;52.548;4.918;2024-03-17T02:17:24;102250.13;;;5.97;86.29
16978;BME280;8605;52.548;4.918;2024-03-17T02:19:52;102257.28;;;5.97;86.67
16978;BME280;8605;52.548;4.918;2024-03-17T02:22:20;102254.53;;;5.98;86.14
16978;BME280;8605;52.548;4.918;2024-03-17T02:24:46;102249.19;;;5.98;86.87
16978;BME280;8605;52.548;4.918;2024-03-17T02:27:13;102237.63;;;5.98;86.30
16978;BME280;8605;52.548;4.918;2024-03-17T02:29:40;102233.84;;;6.02;86.18
16978;BME280;8605;52.548;4.918;2024-03-17T02:32:06;102232.78;;;6.05;86.39
16978;BME280;8605;52.548;4.918;2024-03-17T02:34:33;102245.97;;;6.08;86.36
16978;BME280;8605;52.548;4.918;2024-03-17T02:37:00;102245.09;;;6.07;86.73
16978;BME280;8605;52.548;4.918;2024-03-17T02:39:30;102237.94;;;6.08;86.71
16978;BME280;8605;52.548;4.918;2024-03-17T02:42:02;102235.06;;;6.11;86.57
16978;BME280;8605;52.548;4.918;2024-03-17T02:44:30;102233.25;;;6.11;86.71
16978;BME280;8605;52.548;4.918;2024-03-17T02:46:57;102231.44;;;6.12;86.69
16978;BME280;8605;52.548;4.918;2024-03-17T02:49:24;102223.44;;;6.12;86.79
16978;BME280;8605;52.548;4.918;2024-03-17T02:51:52;102227.91;;;6.11;86.64
16978;BME280;8605;52.548;4.918;2024-03-17T02:54:19;102235.66;;;6.16;86.39
16978;BME280;8605;52.548;4.918;2024-03-17T02:56:47;102228.47;;;6.16;85.99
16978;BME280;8605;52.548;4.918;2024-03-17T02:59:14;102232.00;;;6.17;85.63
16978;BME280;8605;52.548;4.918;2024-03-17T03:01:41;102225.81;;;6.16;85.82
16978;BME280;8605;52.548;4.918;2024-03-17T03:04:08;102231.94;;;6.18;86.27
16978;BME280;8605;52.548;4.918;2024-03-17T03:06:35;102225.72;;;6.18;86.08
16978;BME280;8605;52.548;4.918;2024-03-17T03:09:02;102228.31;;;6.19;85.76
16978;BME280;8605;52.548;4.918;2024-03-17T03:11:31;102222.97;;;6.19;86.13
16978;BME280;8605;52.548;4.918;2024-03-17T03:13:59;102217.63;;;6.19;86.07
16978;BME280;8605;52.548;4.918;2024-03-17T03:16:26;102217.53;;;6.21;86.10
16978;BME280;8605;52.548;4.918;2024-03-17T03:18:52;102220.00;;;6.24;85.70
16978;BME280;8605;52.548;4.918;2024-03-17T03:21:19;102220.75;;;6.26;85.53
16978;BME280;8605;52.548;4.918;2024-03-17T03:23:47;102228.69;;;6.27;85.73
16978;BME280;8605;52.548;4.918;2024-03-17T03:26:14;102219.72;;;6.28;86.15
16978;BME280;8605;52.548;4.918;2024-03-17T03:28:41;102210.63;;;6.31;86.05
16978;BME280;8605;52.548;4.918;2024-03-17T03:31:11;102202.69;;;6.29;86.15
16978;BME280;8605;52.548;4.918;2024-03-17T03:33:39;102200.03;;;6.29;86.08
16978;BME280;8605;52.548;4.918;2024-03-17T03:36:08;102204.44;;;6.30;86.08
16978;BME280;8605;52.548;4.918;2024-03-17T03:38:35;102194.69;;;6.29;86.48
16978;BME280;8605;52.548;4.918;2024-03-17T03:41:06;102194.69;;;6.29;86.59
16978;BME280;8605;52.548;4.918;2024-03-17T03:43:33;102189.25;;;6.31;86.25
16978;BME280;8605;52.548;4.918;2024-03-17T03:46:02;102188.38;;;6.30;86.79
16978;BME280;8605;52.548;4.918;2024-03-17T03:48:30;102187.53;;;6.30;86.67
16978;BME280;8605;52.548;4.918;2024-03-17T03:50:57;102180.38;;;6.30;86.77
16978;BME280;8605;52.548;4.918;2024-03-17T03:53:25;102184.00;;;6.29;86.34
16978;BME280;8605;52.548;4.918;2024-03-17T03:55:52;102178.66;;;6.29;86.87
16978;BME280;8605;52.548;4.918;2024-03-17T03:58:19;102156.53;;;6.27;86.87
16978;BME280;8605;52.548;4.918;2024-03-17T04:00:46;102156.41;;;6.29;87.12
16978;BME280;8605;52.548;4.918;2024-03-17T04:03:13;102158.13;;;6.30;87.19
16978;BME280;8605;52.548;4.918;2024-03-17T04:05:41;102150.22;;;6.28;86.67
16978;BME280;8605;52.548;4.918;2024-03-17T04:08:08;102134.19;;;6.28;86.68
16978;BME280;8605;52.548;4.918;2024-03-17T04:10:35;102127.88;;;6.29;86.83
16978;BME280;8605;52.548;4.918;2024-03-17T04:13:02;102134.94;;;6.30;86.96
16978;BME280;8605;52.548;4.918;2024-03-17T04:15:29;102128.72;;;6.30;86.64
16978;BME280;8605;52.548;4.918;2024-03-17T04:17:56;102120.72;;;6.30;86.71
16978;BME280;8605;52.548;4.918;2024-03-17T04:20:23;102122.53;;;6.29;86.74
16978;BME280;8605;52.548;4.918;2024-03-17T04:22:51;102124.25;;;6.30;86.57
16978;BME280;8605;52.548;4.918;2024-03-17T04:25:18;102118.97;;;6.29;87.31
16978;BME280;8605;52.548;4.918;2024-03-17T04:27:45;102128.84;;;6.28;86.84
16978;BME280;8605;52.548;4.918;2024-03-17T04:30:11;102125.31;;;6.28;87.13
16978;BME280;8605;52.548;4.918;2024-03-17T04:32:39;102130.66;;;6.28;86.92
16978;BME280;8605;52.548;4.918;2024-03-17T04:35:06;102128.06;;;6.26;87.33
16978;BME280;8605;52.548;4.918;2024-03-17T04:37:33;102128.84;;;6.28;86.89
16978;BME280;8605;52.548;4.918;2024-03-17T04:40:07;102134.06;;;6.30;86.78
16978;BME280;8605;52.548;4.918;2024-03-17T04:42:36;102130.34;;;6.32;86.80
16978;BME280;8605;52.548;4.918;2024-03-17T04:45:06;102132.94;;;6.34;87.10
16978;BME280;8605;52.548;4.918;2024-03-17T04:47:35;102136.34;;;6.36;86.64
16978;BME280;8605;52.548;4.918;2024-03-17T04:50:02;102124.69;;;6.37;86.72
16978;BME280;8605;52.548;4.918;2024-03-17T04:52:30;102129.09;;;6.38;86.46
16978;BME280;8605;52.548;4.918;2024-03-17T04:54:57;102135.41;;;6.37;86.73
16978;BME280;8605;52.548;4.918;2024-03-17T04:57:25;102129.31;;;6.35;87.03
16978;BME280;8605;52.548;4.918;2024-03-17T04:59:52;102112.91;;;6.27;86.88
16978;BME280;8605;52.548;4.918;2024-03-17T05:02:19;102126.44;;;6.38;87.03
16978;BME280;8605;52.548;4.918;2024-03-17T05:04:45;102126.50;;;6.36;87.27
16978;BME280;8605;52.548;4.918;2024-03-17T05:07:13;102126.72;;;6.33;86.82
16978;BME280;8605;52.548;4.918;2024-03-17T05:09:40;102121.38;;;6.33;87.57
16978;BME280;8605;52.548;4.918;2024-03-17T05:12:07;102127.69;;;6.32;87.54
16978;BME280;8605;52.548;4.918;2024-03-17T05:14:35;102126.91;;;6.30;87.43
16978;BME280;8605;52.548;4.918;2024-03-17T05:17:02;102124.34;;;6.29;87.58
16978;BME280;8605;52.548;4.918;2024-03-17T05:19:29;102122.66;;;6.28;88.11
16978;BME280;8605;52.548;4.918;2024-03-17T05:21:56;102122.66;;;6.28;88.21
16978;BME280;8605;52.548;4.918;2024-03-17T05:24:23;102128.00;;;6.28;88.16
16978;BME280;8605;52.548;4.918;2024-03-17T05:26:50;102122.66;;;6.28;88.03
16978;BME280;8605;52.548;4.918;2024-03-17T05:29:16;102136.75;;;6.30;88.04
16978;BME280;8605;52.548;4.918;2024-03-17T05:31:45;102141.13;;;6.31;88.00
16978;BME280;8605;52.548;4.918;2024-03-17T05:34:12;102141.03;;;6.32;88.02
16978;BME280;8605;52.548;4.918;2024-03-17T05:36:39;102146.19;;;6.35;87.44
16978;BME280;8605;52.548;4.918;2024-03-17T05:39:06;102144.19;;;6.39;87.46
16978;BME280;8605;52.548;4.918;2024-03-17T05:41:33;102131.47;;;6.42;88.04
16978;BME280;8605;52.548;4.918;2024-03-17T05:44:01;102137.78;;;6.41;88.07
16978;BME280;8605;52.548;4.918;2024-03-17T05:46:29;102134.03;;;6.44;87.93
16978;BME280;8605;52.548;4.918;2024-03-17T05:48:57;102135.59;;;6.48;87.64
16978;BME280;8605;52.548;4.918;2024-03-17T05:51:24;102139.84;;;6.51;87.05
16978;BME280;8605;52.548;4.918;2024-03-17T05:53:53;102141.34;;;6.55;87.36
16978;BME280;8605;52.548;4.918;2024-03-17T05:56:21;102137.84;;;6.54;87.07
16978;BME280;8605;52.548;4.918;2024-03-17T05:58:48;102139.44;;;6.57;87.07
16978;BME280;8605;52.548;4.918;2024-03-17T06:01:15;102128.75;;;6.57;87.14
16978;BME280;8605;52.548;4.918;2024-03-17T06:03:42;102121.50;;;6.59;86.72
16978;BME280;8605;52.548;4.918;2024-03-17T06:06:10;102123.00;;;6.63;86.69
16978;BME280;8605;52.548;4.918;2024-03-17T06:08:37;102128.25;;;6.64;86.45
16978;BME280;8605;52.548;4.918;2024-03-17T06:11:04;102130.75;;;6.67;86.22
16978;BME280;8605;52.548;4.918;2024-03-17T06:13:31;102130.84;;;6.66;86.40
16978;BME280;8605;52.548;4.918;2024-03-17T06:15:58;102130.63;;;6.69;86.41
16978;BME280;8605;52.548;4.918;2024-03-17T06:18:27;102140.19;;;6.73;85.57
16978;BME280;8605;52.548;4.918;2024-03-17T06:20:54;102132.78;;;6.76;85.51
16978;BME280;8605;52.548;4.918;2024-03-17T06:23:25;102137.97;;;6.79;85.62
16978;BME280;8605;52.548;4.918;2024-03-17T06:25:54;102139.69;;;6.80;85.53
16978;BME280;8605;52.548;4.918;2024-03-17T06:28:21;102136.00;;;6.81;85.78
16978;BME280;8605;52.548;4.918;2024-03-17T06:30:55;102133.16;;;6.85;85.09
16978;BME280;8605;52.548;4.918;2024-03-17T06:33:25;102133.91;;;6.87;85.63
16978;BME280;8605;52.548;4.918;2024-03-17T06:35:52;102130.25;;;6.88;85.80
16978;BME280;8605;52.548;4.918;2024-03-17T06:38:19;102133.59;;;6.91;85.18
16978;BME280;8605;52.548;4.918;2024-03-17T06:40:51;102129.13;;;6.92;85.24
16978;BME280;8605;52.548;4.918;2024-03-17T06:43:19;102127.94;;;6.96;85.27
16978;BME280;8605;52.548;4.918;2024-03-17T06:45:53;102128.78;;;6.96;85.44
16978;BME280;8605;52.548;4.918;2024-03-17T06:48:20;102126.78;;;7.00;84.89
16978;BME280;8605;52.548;4.918;2024-03-17T06:50:47;102125.81;;;7.01;85.10
16978;BME280;8605;52.548;4.918;2024-03-17T06:53:14;102118.34;;;7.06;85.12
16978;BME280;8605;52.548;4.918;2024-03-17T06:55:41;102121.75;;;7.08;84.76
16978;BME280;8605;52.548;4.918;2024-03-17T06:58:09;102122.53;;;7.10;84.71
16978;BME280;8605;52.548;4.918;2024-03-17T07:00:36;102116.22;;;7.11;84.55
16978;BME280;8605;52.548;4.918;2024-03-17T07:03:03;102120.59;;;7.12;84.66
16978;BME280;8605;52.548;4.918;2024-03-17T07:05:30;102111.63;;;7.13;84.85
16978;BME280;8605;52.548;4.918;2024-03-17T07:07:59;102115.03;;;7.15;84.33
16978;BME280;8605;52.548;4.918;2024-03-17T07:10:25;102121.91;;;7.19;83.86
16978;BME280;8605;52.548;4.918;2024-03-17T07:12:53;102116.31;;;7.22;84.06
16978;BME280;8605;52.548;4.918;2024-03-17T07:15:21;102112.88;;;7.20;84.11
16978;BME280;8605;52.548;4.918;2024-03-17T07:17:49;102118.91;;;7.23;84.42
16978;BME280;8605;52.548;4.918;2024-03-17T07:20:16;102120.63;;;7.25;83.44
16978;BME280;8605;52.548;4.918;2024-03-17T07:22:43;102111.50;;;7.27;83.72
16978;BME280;8605;52.548;4.918;2024-03-17T07:25:10;102111.09;;;7.33;83.26
16978;BME280;8605;52.548;4.918;2024-03-17T07:27:38;102116.34;;;7.35;83.59
16978;BME280;8605;52.548;4.918;2024-03-17T07:30:06;102114.19;;;7.40;83.26
16978;BME280;8605;52.548;4.918;2024-03-17T07:32:35;102114.09;;;7.41;83.28
16978;BME280;8605;52.548;4.918;2024-03-17T07:35:01;102113.78;;;7.46;83.24
16978;BME280;8605;52.548;4.918;2024-03-17T07:37:28;102110.78;;;7.50;82.59
16978;BME280;8605;52.548;4.918;2024-03-17T07:39:55;102107.03;;;7.53;82.54
16978;BME280;8605;52.548;4.918;2024-03-17T07:42:22;102105.72;;;7.58;82.49
16978;BME280;8605;52.548;4.918;2024-03-17T07:44:49;102099.22;;;7.62;82.78
16978;BME280;8605;52.548;4.918;2024-03-17T07:47:16;102103.63;;;7.63;82.20
16978;BME280;8605;52.548;4.918;2024-03-17T07:49:47;102099.75;;;7.68;82.75
16978;BME280;8605;52.548;4.918;2024-03-17T07:52:14;102097.16;;;7.79;82.32
16978;BME280;8605;52.548;4.918;2024-03-17T07:54:41;102093.06;;;7.86;81.82
16978;BME280;8605;52.548;4.918;2024-03-17T07:57:08;102099.59;;;7.94;82.02
16978;BME280;8605;52.548;4.918;2024-03-17T07:59:35;102098.53;;;7.97;81.89
16978;BME280;8605;52.548;4.918;2024-03-17T08:02:02;102102.59;;;8.02;81.34
16978;BME280;8605;52.548;4.918;2024-03-17T08:04:28;102103.97;;;8.08;81.31
16978;BME280;8605;52.548;4.918;2024-03-17T08:06:57;102109.00;;;8.13;81.75
16978;BME280;8605;52.548;4.918;2024-03-17T08:09:24;102107.28;;;8.12;81.80
16978;BME280;8605;52.548;4.918;2024-03-17T08:11:52;102108.91;;;8.14;81.31
16978;BME280;8605;52.548;4.918;2024-03-17T08:14:19;102105.25;;;8.15;81.37
16978;BME280;8605;52.548;4.918;2024-03-17T08:16:45;102111.34;;;8.17;81.72
16978;BME280;8605;52.548;4.918;2024-03-17T08:19:12;102111.25;;;8.19;81.14
16978;BME280;8605;52.548;4.918;2024-03-17T08:21:39;102107.38;;;8.23;81.61
16978;BME280;8605;52.548;4.918;2024-03-17T08:24:07;102110.69;;;8.26;81.88
16978;BME280;8605;52.548;4.918;2024-03-17T08:26:34;102105.44;;;8.25;81.69
16978;BME280;8605;52.548;4.918;2024-03-17T08:29:00;102111.44;;;8.28;82.09
16978;BME280;8605;52.548;4.918;2024-03-17T08:31:27;102104.25;;;8.29;82.33
16978;BME280;8605;52.548;4.918;2024-03-17T08:33:54;102105.00;;;8.31;82.22
16978;BME280;8605;52.548;4.918;2024-03-17T08:36:20;102110.91;;;8.36;81.90
16978;BME280;8605;52.548;4.918;2024-03-17T08:38:48;102106.94;;;8.41;81.96
16978;BME280;8605;52.548;4.918;2024-03-17T08:41:16;102105.22;;;8.40;81.53
16978;BME280;8605;52.548;4.918;2024-03-17T08:43:43;102109.72;;;8.40;81.98
16978;BME280;8605;52.548;4.918;2024-03-17T08:46:11;102113.25;;;8.40;82.50
16978;BME280;8605;52.548;4.918;2024-03-17T08:48:39;102111.19;;;8.44;82.00
16978;BME280;8605;52.548;4.918;2024-03-17T08:51:07;102110.88;;;8.49;82.57
16978;BME280;8605;52.548;4.918;2024-03-17T08:53:35;102107.84;;;8.53;82.80
16978;BME280;8605;52.548;4.918;2024-03-17T08:56:03;102113.81;;;8.57;82.59
16978;BME280;8605;52.548;4.918;2024-03-17T08:58:33;102116.50;;;8.57;82.31
16978;BME280;8605;52.548;4.918;2024-03-17T09:01:03;102114.38;;;8.62;81.42
16978;BME280;8605;52.548;4.918;2024-03-17T09:03:31;102108.94;;;8.74;81.30
16978;BME280;8605;52.548;4.918;2024-03-17T09:05:57;102113.50;;;8.85;81.28
16978;BME280;8605;52.548;4.918;2024-03-17T09:08:24;102114.50;;;8.95;80.82
16978;BME280;8605;52.548;4.918;2024-03-17T09:10:53;102103.69;;;9.08;81.30
16978;BME280;8605;52.548;4.918;2024-03-17T09:13:20;102107.28;;;9.19;80.47
16978;BME280;8605;52.548;4.918;2024-03-17T09:15:55;102092.63;;;9.23;79.96
16978;BME280;8605;52.548;4.918;2024-03-17T09:18:24;102092.22;;;9.52;79.94
16978;BME280;8605;52.548;4.918;2024-03-17T09:20:57;102086.09;;;9.50;78.97
16978;BME280;8605;52.548;4.918;2024-03-17T09:23:24;102090.97;;;9.56;80.11
16978;BME280;8605;52.548;4.918;2024-03-17T09:25:58;102085.50;;;9.57;79.50
16978;BME280;8605;52.548;4.918;2024-03-17T09:28:26;102073.88;;;9.57;79.86
16978;BME280;8605;52.548;4.918;2024-03-17T09:30:55;102077.69;;;9.77;79.22
16978;BME280;8605;52.548;4.918;2024-03-17T09:33:22;102076.22;;;9.84;79.35
16978;BME280;8605;52.548;4.918;2024-03-17T09:35:53;102075.59;;;9.80;78.90
16978;BME280;8605;52.548;4.918;2024-03-17T09:38:21;102078.41;;;10.01;79.17
16978;BME280;8605;52.548;4.918;2024-03-17T09:40:48;102070.19;;;10.14;79.82
16978;BME280;8605;52.548;4.918;2024-03-17T09:43:18;102059.31;;;10.15;78.53
16978;BME280;8605;52.548;4.918;2024-03-17T09:45:45;102069.44;;;10.12;78.50
16978;BME280;8605;52.548;4.918;2024-03-17T09:48:16;102065.19;;;10.20;78.13
16978;BME280;8605;52.548;4.918;2024-03-17T09:50:50;102065.91;;;10.33;79.26
16978;BME280;8605;52.548;4.918;2024-03-17T09:53:23;102054.50;;;10.41;78.89
16978;BME280;8605;52.548;4.918;2024-03-17T09:55:50;102064.81;;;10.36;78.24
16978;BME280;8605;52.548;4.918;2024-03-17T09:58:19;102059.22;;;10.60;78.10
16978;BME280;8605;52.548;4.918;2024-03-17T10:00:46;102060.75;;;10.73;77.23
16978;BME280;8605;52.548;4.918;2024-03-17T10:03:39;102054.06;;;10.68;76.96
16978;BME280;8605;52.548;4.918;2024-03-17T10:06:07;102050.34;;;11.01;77.04
16978;BME280;8605;52.548;4.918;2024-03-17T10:08:43;102047.19;;;11.16;76.62
16978;BME280;8605;52.548;4.918;2024-03-17T10:11:10;102051.50;;;11.29;76.88
16978;BME280;8605;52.548;4.918;2024-03-17T10:13:37;102052.38;;;11.29;76.34
16978;BME280;8605;52.548;4.918;2024-03-17T10:16:04;102052.38;;;11.08;76.89
16978;BME280;8605;52.548;4.918;2024-03-17T10:18:32;102049.31;;;11.13;76.91
16978;BME280;8605;52.548;4.918;2024-03-17T10:20:59;102042.44;;;11.09;76.85
16978;BME280;8605;52.548;4.918;2024-03-17T10:23:27;102047.25;;;11.05;76.31
16978;BME280;8605;52.548;4.918;2024-03-17T10:25:54;102039.72;;;11.20;76.35
16978;BME280;8605;52.548;4.918;2024-03-17T10:28:20;102043.25;;;11.20;76.92
16978;BME280;8605;52.548;4.918;2024-03-17T10:30:57;102038.72;;;11.21;76.50
16978;BME280;8605;52.548;4.918;2024-03-17T10:33:26;102037.34;;;11.27;76.49
16978;BME280;8605;52.548;4.918;2024-03-17T10:36:01;102042.84;;;11.25;75.84
16978;BME280;8605;52.548;4.918;2024-03-17T10:38:30;102025.56;;;11.28;76.21
16978;BME280;8605;52.548;4.918;2024-03-17T10:41:00;102033.28;;;11.42;76.58
16978;BME280;8605;52.548;4.918;2024-03-17T10:43:27;102030.56;;;11.32;75.36
16978;BME280;8605;52.548;4.918;2024-03-17T10:45:57;102027.34;;;11.17;76.79
16978;BME280;8605;52.548;4.918;2024-03-17T10:48:30;102024.25;;;11.22;76.90
16978;BME280;8605;52.548;4.918;2024-03-17T10:51:01;102022.72;;;11.08;75.75
16978;BME280;8605;52.548;4.918;2024-03-17T10:53:28;102022.56;;;11.21;76.42
16978;BME280;8605;52.548;4.918;2024-03-17T10:56:03;102024.56;;;11.29;76.38
16978;BME280;8605;52.548;4.918;2024-03-17T10:58:34;102021.75;;;11.30;76.62
16978;BME280;8605;52.548;4.918;2024-03-17T11:01:02;102022.34;;;11.34;76.42
16978;BME280;8605;52.548;4.918;2024-03-17T11:03:32;102017.09;;;11.32;76.59
16978;BME280;8605;52.548;4.918;2024-03-17T11:06:03;102019.91;;;11.31;76.13
16978;BME280;8605;52.548;4.918;2024-03-17T11:08:32;102011.16;;;11.38;76.56
16978;BME280;8605;52.548;4.918;2024-03-17T11:11:00;102017.28;;;11.40;76.07
16978;BME280;8605;52.548;4.918;2024-03-17T11:13:30;102020.44;;;11.25;75.42
16978;BME280;8605;52.548;4.918;2024-03-17T11:15:58;102018.78;;;11.33;75.65
16978;BME280;8605;52.548;4.918;2024-03-17T11:18:35;102010.72;;;11.33;76.16
16978;BME280;8605;52.548;4.918;2024-03-17T11:21:04;102008.47;;;11.38;76.91
16978;BME280;8605;52.548;4.918;2024-03-17T11:23:37;102011.88;;;11.40;76.50
16978;BME280;8605;52.548;4.918;2024-03-17T11:26:05;102011.72;;;11.42;75.92
16978;BME280;8605;52.548;4.918;2024-03-17T11:28:51;101998.66;;;11.37;76.44
16978;BME280;8605;52.548;4.918;2024-03-17T11:31:38;102002.34;;;11.36;76.57
16978;BME280;8605;52.548;4.918;2024-03-17T11:34:29;102003.69;;;11.51;76.15
16978;BME280;8605;52.548;4.918;2024-03-17T11:36:59;101997.44;;;11.51;76.40
16978;BME280;8605;52.548;4.918;2024-03-17T11:39:54;101987.53;;;11.51;76.30
16978;BME280;8605;52.548;4.918;2024-03-17T11:42:25;101997.75;;;11.57;76.04
16978;BME280;8605;52.548;4.918;2024-03-17T11:45:03;101984.66;;;11.43;75.85
16978;BME280;8605;52.548;4.918;2024-03-17T11:47:39;101994.31;;;11.46;76.13
16978;BME280;8605;52.548;4.918;2024-03-17T11:50:07;101990.84;;;11.65;76.21
16978;BME280;8605;52.548;4.918;2024-03-17T11:52:37;101990.16;;;11.72;75.79
16978;BME280;8605;52.548;4.918;2024-03-17T11:55:03;101986.31;;;11.65;75.44
16978;BME280;8605;52.548;4.918;2024-03-17T11:57:30;101984.16;;;11.69;75.39
16978;BME280;8605;52.548;4.918;2024-03-17T11:59:56;101984.59;;;11.64;75.49
16978;BME280;8605;52.548;4.918;2024-03-17T12:02:26;101979.34;;;11.62;75.81
16978;BME280;8605;52.548;4.918;2024-03-17T12:04:52;101976.81;;;11.71;75.63
16978;BME280;8605;52.548;4.918;2024-03-17T12:07:21;101974.72;;;11.74;75.75
16978;BME280;8605;52.548;4.918;2024-03-17T12:09:50;101964.88;;;11.73;75.97
16978;BME280;8605;52.548;4.918;2024-03-17T12:12:20;101961.50;;;11.71;75.16
16978;BME280;8605;52.548;4.918;2024-03-17T12:14:47;101965.09;;;11.81;76.29
16978;BME280;8605;52.548;4.918;2024-03-17T12:17:19;101968.38;;;11.85;75.79
16978;BME280;8605;52.548;4.918;2024-03-17T12:19:45;101966.78;;;11.82;75.56
16978;BME280;8605;52.548;4.918;2024-03-17T12:22:16;101953.59;;;11.89;76.09
16978;BME280;8605;52.548;4.918;2024-03-17T12:24:44;101955.88;;;11.84;75.29
16978;BME280;8605;52.548;4.918;2024-03-17T12:27:17;101967.09;;;11.79;75.09
16978;BME280;8605;52.548;4.918;2024-03-17T12:29:43;101946.25;;;11.91;75.81
16978;BME280;8605;52.548;4.918;2024-03-17T12:32:13;101952.63;;;11.90;75.39
16978;BME280;8605;52.548;4.918;2024-03-17T12:34:40;101945.69;;;11.97;76.25
16978;BME280;8605;52.548;4.918;2024-03-17T12:37:08;101941.69;;;12.01;75.72
16978;BME280;8605;52.548;4.918;2024-03-17T12:39:34;101936.88;;;11.95;75.37
16978;BME280;8605;52.548;4.918;2024-03-17T12:42:06;101941.13;;;12.07;75.04
16978;BME280;8605;52.548;4.918;2024-03-17T12:44:34;101931.06;;;12.09;75.41
16978;BME280;8605;52.548;4.918;2024-03-17T12:47:04;101926.97;;;12.24;75.30
16978;BME280;8605;52.548;4.918;2024-03-17T12:49:32;101914.47;;;12.23;75.12
16978;BME280;8605;52.548;4.918;2024-03-17T12:52:00;101911.16;;;12.39;75.13
16978;BME280;8605;52.548;4.918;2024-03-17T12:54:27;101910.19;;;12.30;75.48
16978;BME280;8605;52.548;4.918;2024-03-17T12:57:04;101898.84;;;12.36;75.68
16978;BME280;8605;52.548;4.918;2024-03-17T12:59:50;101901.38;;;12.38;75.87
16978;BME280;8605;52.548;4.918;2024-03-17T13:02:34;101901.94;;;12.41;76.84
16978;BME280;8605;52.548;4.918;2024-03-17T13:05:10;101896.97;;;12.27;77.56
16978;BME280;8605;52.548;4.918;2024-03-17T13:07:38;101898.13;;;12.25;77.86
16978;BME280;8605;52.548;4.918;2024-03-17T13:10:06;101896.97;;;12.27;78.16
16978;BME280;8605;52.548;4.918;2024-03-17T13:12:34;101888.59;;;12.21;78.20
16978;BME280;8605;52.548;4.918;2024-03-17T13:15:02;101890.72;;;12.08;78.07